Terminal Aerodrome Forecast
Issued by NWS

Home | Current Version | Previous Version | Graphics & Text | Print | Product List | Glossary On
Versions: 1 2 3 4 5 6 7 8 9 10 11 12 13 14 15 16 17 18 19 20 21 22 23 24 25 26
571
FTUS43 KMPX 250353 AAA
TAFRWF
TAF AMD
KRWF 250353Z 2504/2524 30007KT 6SM -TSRA OVC012CB
     FM250800 34006KT 4SM -SHRA BR OVC010
     FM251400 35006KT 4SM -DZ BR OVC007
     FM252000 35008KT 6SM -SHRA OVC015=

USA.gov is the U.S. government's official web portal to all federal, state and local government web resources and services.